Time;durP1;ratioP1;P1;durP2;ratioP2;P2;SDS_P1;SDS_P2;PMS_P1;PMS_P2;Temp;Humidity;BMP_temperature;BMP_pressure;BME280_temperature;BME280_humidity;BME280_pressure;Samples;Min_cycle;Max_cycle;Signal;HPM_P1;HPM_P2
2023/04/09 00:01:05;;;;;;;53.77;35.23;;;4.30;99.90;;;;;;5063258;28;20432;-89
2023/04/09 00:03:32;;;;;;;36.57;29.50;;;4.20;99.90;;;;;;5067433;28;20432;-88
2023/04/09 00:05:59;;;;;;;40.10;29.80;;;4.30;99.90;;;;;;5065798;28;20436;-88
2023/04/09 00:08:27;;;;;;;36.50;28.93;;;4.40;99.90;;;;;;5061014;28;20528;-88
2023/04/09 00:10:58;;;;;;;40.60;31.00;;;4.30;99.90;;;;;;5063712;28;20460;-86
2023/04/09 00:13:25;;;;;;;39.50;30.00;;;4.40;99.90;;;;;;5057336;28;20624;-88
2023/04/09 00:15:52;;;;;;;34.83;31.10;;;4.30;99.90;;;;;;5065594;28;20427;-88
2023/04/09 00:18:20;;;;;;;39.60;29.97;;;4.30;99.90;;;;;;5068429;28;20445;-89
2023/04/09 00:20:47;;;;;;;42.40;31.83;;;4.30;99.90;;;;;;5065765;28;20481;-88
2023/04/09 00:23:15;;;;;;;36.33;30.30;;;4.20;99.90;;;;;;5063446;28;20437;-89
2023/04/09 00:25:42;;;;;;;36.83;29.73;;;4.20;99.90;;;;;;5062454;28;20463;-89
2023/04/09 00:28:10;;;;;;;38.47;31.20;;;4.30;99.90;;;;;;5066609;28;20477;-88
2023/04/09 00:30:37;;;;;;;36.43;30.57;;;4.20;99.90;;;;;;5067555;28;20431;-88
2023/04/09 00:33:05;;;;;;;40.43;32.43;;;4.30;99.90;;;;;;5065168;28;20438;-88
2023/04/09 00:35:35;;;;;;;36.23;31.00;;;4.40;99.90;;;;;;5062970;28;20464;-88
2023/04/09 00:38:02;;;;;;;36.10;31.20;;;4.30;99.90;;;;;;5063916;28;20449;-88
2023/04/09 00:40:30;;;;;;;38.50;32.50;;;4.30;99.90;;;;;;5066607;28;20448;-89
2023/04/09 00:42:56;;;;;;;36.10;32.27;;;4.20;99.90;;;;;;5066043;28;20518;-88
2023/04/09 00:45:25;;;;;;;43.37;31.53;;;4.40;99.90;;;;;;5061041;28;20448;-88
2023/04/09 00:47:52;;;;;;;40.53;33.00;;;4.40;99.90;;;;;;5062703;28;20470;-88
2023/04/09 00:50:19;;;;;;;39.10;32.97;;;4.30;99.90;;;;;;5061759;28;20435;-88
2023/04/09 00:52:50;;;;;;;39.33;34.57;;;4.20;99.90;;;;;;5063618;28;20500;-88
2023/04/09 00:55:18;;;;;;;46.33;32.60;;;4.20;99.90;;;;;;5064390;28;20444;-88
2023/04/09 00:57:48;;;;;;;48.23;34.07;;;4.20;99.90;;;;;;5061152;28;20472;-89
2023/04/09 01:00:16;;;;;;;40.60;31.60;;;4.30;99.90;;;;;;5064598;28;20440;-87
2023/04/09 01:02:45;;;;;;;37.63;31.10;;;4.30;99.90;;;;;;5062198;28;20434;-88
2023/04/09 01:05:13;;;;;;;37.30;31.67;;;4.40;99.90;;;;;;5063873;28;20416;-88
2023/04/09 01:08:03;;;;;;;40.60;33.17;;;4.50;99.90;;;;;;5047219;28;20471;-87
2023/04/09 01:10:38;;;;;;;36.73;30.93;;;4.50;99.90;;;;;;5036540;28;20457;-88
2023/04/09 01:13:11;;;;;;;41.90;31.37;;;4.40;99.90;;;;;;5037759;28;20429;-88
2023/04/09 01:15:41;;;;;;;41.40;30.93;;;4.40;99.90;;;;;;5036631;28;21368;-86
2023/04/09 01:18:18;;;;;;;37.13;29.83;;;4.40;99.90;;;;;;5036605;28;20458;-88
2023/04/09 01:20:52;;;;;;;39.00;29.87;;;4.40;99.90;;;;;;5036579;28;20438;-88
2023/04/09 01:23:32;;;;;;;37.63;30.07;;;4.50;99.90;;;;;;5036101;28;20441;-88
2023/04/09 01:26:04;;;;;;;39.27;29.40;;;4.50;99.90;;;;;;5036614;28;20431;-87
2023/04/09 01:28:36;;;;;;;31.23;26.20;;;4.40;99.90;;;;;;5036378;28;20479;-88
2023/04/09 01:31:10;;;;;;;34.23;26.43;;;4.30;99.90;;;;;;5053645;28;20593;-88
2023/04/09 01:33:39;;;;;;;30.63;24.73;;;4.20;99.90;;;;;;5044188;28;20461;-87
2023/04/09 01:36:07;;;;;;;29.60;24.77;;;4.00;99.90;;;;;;5037400;28;20423;-88
2023/04/09 01:38:36;;;;;;;29.30;23.57;;;4.10;99.90;;;;;;5037207;28;20540;-88
2023/04/09 01:41:04;;;;;;;28.53;23.10;;;4.10;99.90;;;;;;5036878;28;20447;-87
2023/04/09 01:43:34;;;;;;;31.10;22.80;;;4.00;99.90;;;;;;5036493;28;20461;-88
2023/04/09 01:46:02;;;;;;;31.47;22.30;;;4.20;99.90;;;;;;5036392;28;20472;-88
2023/04/09 01:48:30;;;;;;;28.50;23.30;;;4.10;99.90;;;;;;5037886;28;20514;-87
2023/04/09 01:50:58;;;;;;;25.10;21.50;;;4.00;99.90;;;;;;5037127;28;20460;-87
2023/04/09 01:53:27;;;;;;;29.87;25.13;;;3.90;99.90;;;;;;5036764;28;20438;-88
2023/04/09 01:55:55;;;;;;;29.47;23.60;;;3.80;99.90;;;;;;5036991;28;20434;-88
2023/04/09 01:58:23;;;;;;;30.20;23.17;;;3.80;99.90;;;;;;5053246;28;20473;-88
2023/04/09 02:00:53;;;;;;;24.67;22.03;;;3.80;99.90;;;;;;5044889;28;20433;-87
2023/04/09 02:03:24;;;;;;;25.40;22.33;;;3.70;99.90;;;;;;5041064;28;20439;-87
2023/04/09 02:05:55;;;;;;;32.30;23.47;;;3.80;99.90;;;;;;5040725;28;20438;-87
2023/04/09 02:08:25;;;;;;;29.57;22.40;;;3.70;99.90;;;;;;5040782;28;20473;-87
2023/04/09 02:10:56;;;;;;;26.33;22.33;;;3.70;99.90;;;;;;5040899;28;20436;-88
2023/04/09 02:13:26;;;;;;;28.80;23.43;;;3.60;99.90;;;;;;5040628;28;20847;-88
2023/04/09 02:15:56;;;;;;;29.53;22.80;;;3.60;99.90;;;;;;5040748;28;20425;-88
2023/04/09 02:18:26;;;;;;;27.37;22.13;;;3.60;99.90;;;;;;5045734;28;20460;-89
2023/04/09 02:20:54;;;;;;;29.03;22.40;;;3.70;99.90;;;;;;5042458;28;20429;-88
2023/04/09 02:23:21;;;;;;;29.57;24.10;;;3.70;99.90;;;;;;5040482;28;20532;-88
2023/04/09 02:25:48;;;;;;;29.33;21.60;;;3.60;99.90;;;;;;5053073;23;20592;-51
2023/04/09 02:28:15;;;;;;;27.73;21.60;;;3.60;99.90;;;;;;5036930;28;20562;-53
2023/04/09 02:30:42;;;;;;;23.20;20.60;;;3.70;99.90;;;;;;5037467;28;21017;-51
2023/04/09 02:33:10;;;;;;;28.33;22.63;;;3.80;99.90;;;;;;5038401;28;20538;-53
2023/04/09 02:35:37;;;;;;;33.10;23.77;;;3.80;99.90;;;;;;5037477;28;20536;-51
2023/04/09 02:38:04;;;;;;;32.00;22.23;;;3.70;99.90;;;;;;5037513;28;20502;-52
2023/04/09 02:40:31;;;;;;;27.30;24.37;;;3.80;99.90;;;;;;5037242;28;20531;-53
2023/04/09 02:42:58;;;;;;;27.93;22.57;;;3.70;99.90;;;;;;5037114;28;20997;-51
2023/04/09 02:45:25;;;;;;;27.93;21.90;;;3.70;99.90;;;;;;5035397;28;20444;-53
2023/04/09 02:47:52;;;;;;;29.17;22.80;;;3.70;99.90;;;;;;5036702;28;20518;-53
2023/04/09 02:50:20;;;;;;;29.67;23.70;;;3.70;99.90;;;;;;5036252;28;20791;-52
2023/04/09 02:52:47;;;;;;;28.80;25.17;;;3.80;99.90;;;;;;5035691;28;20555;-53
2023/04/09 02:55:15;;;;;;;27.10;22.90;;;3.90;99.90;;;;;;5034100;28;20521;-50
2023/04/09 02:57:41;;;;;;;26.87;22.90;;;4.00;99.90;;;;;;5037369;28;20495;-51
2023/04/09 03:00:10;;;;;;;28.17;21.80;;;4.10;99.90;;;;;;5037217;28;20931;-51
2023/04/09 03:02:37;;;;;;;30.17;22.03;;;4.10;99.90;;;;;;5036845;28;20546;-51
2023/04/09 03:05:04;;;;;;;28.20;21.40;;;4.10;99.90;;;;;;5037089;28;20465;-51
2023/04/09 03:07:33;;;;;;;23.80;20.80;;;4.20;99.90;;;;;;5036424;28;20910;-51
2023/04/09 03:10:00;;;;;;;24.87;21.17;;;4.30;99.90;;;;;;5036253;28;20457;-52
2023/04/09 03:12:27;;;;;;;25.07;20.30;;;4.30;99.90;;;;;;5035094;28;20458;-51
2023/04/09 03:14:54;;;;;;;24.90;20.30;;;4.30;99.90;;;;;;5035097;28;20481;-51
2023/04/09 03:17:21;;;;;;;25.20;20.23;;;4.20;99.90;;;;;;5035950;28;20476;-53
2023/04/09 03:19:47;;;;;;;23.33;20.43;;;4.20;99.90;;;;;;5035453;28;20529;-51
2023/04/09 03:22:14;;;;;;;25.27;21.80;;;4.20;99.90;;;;;;5035807;28;20552;-51
2023/04/09 03:24:43;;;;;;;31.00;23.63;;;4.30;99.90;;;;;;5035914;28;20454;-52
2023/04/09 03:27:10;;;;;;;31.63;23.90;;;4.30;99.90;;;;;;5036073;28;20452;-52
2023/04/09 03:29:37;;;;;;;24.13;20.23;;;4.20;99.90;;;;;;5035916;28;20676;-51
2023/04/09 03:32:03;;;;;;;28.40;21.30;;;4.20;99.90;;;;;;5035456;28;20462;-51
2023/04/09 03:34:30;;;;;;;28.43;21.10;;;4.20;99.90;;;;;;5035780;28;20488;-52
2023/04/09 03:36:57;;;;;;;32.03;22.57;;;4.10;99.90;;;;;;5036015;28;20529;-51
2023/04/09 03:39:24;;;;;;;29.10;22.17;;;4.10;99.90;;;;;;5036664;28;20885;-51
2023/04/09 03:41:53;;;;;;;30.97;22.77;;;4.20;99.90;;;;;;5036112;28;21028;-53
2023/04/09 03:44:20;;;;;;;26.40;21.70;;;4.30;99.90;;;;;;5035704;28;20469;-51
2023/04/09 03:46:47;;;;;;;25.67;20.53;;;4.20;99.90;;;;;;5035668;28;20454;-52
2023/04/09 03:49:13;;;;;;;23.90;21.33;;;4.30;99.90;;;;;;5036485;28;20517;-52
2023/04/09 03:51:40;;;;;;;28.53;22.03;;;4.20;99.90;;;;;;5034874;28;20474;-52
2023/04/09 03:54:07;;;;;;;30.47;23.10;;;4.30;99.90;;;;;;5035435;28;20477;-51
2023/04/09 03:56:34;;;;;;;27.63;21.90;;;4.20;99.90;;;;;;5034198;28;20491;-54
2023/04/09 03:59:02;;;;;;;28.60;23.17;;;4.30;99.90;;;;;;5034757;28;20434;-51
2023/04/09 04:01:29;;;;;;;28.90;21.93;;;4.30;99.90;;;;;;5035420;28;20537;-53
2023/04/09 04:03:56;;;;;;;27.40;21.60;;;4.30;99.90;;;;;;5035159;28;20453;-52
2023/04/09 04:06:23;;;;;;;28.70;20.40;;;4.40;99.90;;;;;;5034830;28;20527;-51
2023/04/09 04:08:50;;;;;;;27.17;21.97;;;4.50;99.90;;;;;;5034718;28;21046;-52
2023/04/09 04:11:17;;;;;;;27.93;22.10;;;4.60;99.90;;;;;;5034623;28;20474;-52
2023/04/09 04:13:44;;;;;;;25.03;20.43;;;4.70;99.90;;;;;;5032901;28;20496;-50
2023/04/09 04:16:12;;;;;;;24.30;20.33;;;4.80;99.90;;;;;;5031787;28;20454;-52
2023/04/09 04:18:39;;;;;;;26.47;21.53;;;4.80;99.90;;;;;;5032317;28;20473;-50
2023/04/09 04:21:12;;;;;;;25.60;21.53;;;4.90;99.90;;;;;;5033134;28;20534;-51
2023/04/09 04:23:39;;;;;;;25.47;22.30;;;4.80;99.90;;;;;;5033011;28;20588;-52
2023/04/09 04:26:08;;;;;;;24.53;20.70;;;4.70;99.90;;;;;;5033211;28;20450;-54
2023/04/09 04:28:36;;;;;;;28.13;23.00;;;4.70;99.90;;;;;;5033886;28;20470;-52
2023/04/09 04:31:03;;;;;;;23.97;21.03;;;4.80;99.90;;;;;;5033718;28;20453;-51
2023/04/09 04:33:31;;;;;;;21.67;17.90;;;4.90;99.90;;;;;;5034391;28;20562;-52
2023/04/09 04:36:05;;;;;;;21.93;17.33;;;4.60;99.90;;;;;;5034272;28;20478;-53
2023/04/09 04:38:32;;;;;;;27.53;18.97;;;4.40;99.90;;;;;;5034272;28;20947;-51
2023/04/09 04:40:59;;;;;;;20.13;16.60;;;4.40;99.90;;;;;;5033570;28;20500;-51
2023/04/09 04:43:26;;;;;;;26.40;17.93;;;4.30;99.90;;;;;;5034603;28;20470;-51
2023/04/09 04:45:53;;;;;;;26.83;19.80;;;4.30;99.90;;;;;;5033970;28;21024;-51
2023/04/09 04:48:20;;;;;;;25.20;17.40;;;4.20;99.90;;;;;;5035129;28;20560;-52
2023/04/09 04:50:55;;;;;;;29.27;19.80;;;4.20;99.90;;;;;;5033668;28;20535;-53
2023/04/09 04:53:22;;;;;;;22.87;16.93;;;4.50;99.90;;;;;;5034629;28;20462;-51
2023/04/09 04:55:49;;;;;;;25.47;17.87;;;4.50;99.90;;;;;;5034016;28;20991;-52
2023/04/09 04:58:16;;;;;;;25.90;18.60;;;4.70;99.90;;;;;;5034421;28;20450;-51
2023/04/09 05:00:43;;;;;;;20.63;17.30;;;4.70;99.90;;;;;;5033991;28;20452;-53
2023/04/09 05:03:11;;;;;;;21.13;17.63;;;4.80;99.90;;;;;;5033745;28;20473;-52
2023/04/09 05:05:37;;;;;;;20.83;16.30;;;4.50;99.90;;;;;;5033760;28;20484;-52
2023/04/09 05:08:06;;;;;;;25.57;19.07;;;4.30;99.90;;;;;;5033932;28;20557;-51
2023/04/09 05:10:33;;;;;;;25.23;20.23;;;4.30;99.90;;;;;;5034286;28;20457;-52
2023/04/09 05:13:00;;;;;;;22.90;18.37;;;4.20;99.90;;;;;;5034362;28;20502;-52
2023/04/09 05:15:27;;;;;;;23.70;18.43;;;4.10;99.90;;;;;;5033040;28;20495;-53
2023/04/09 05:17:54;;;;;;;28.40;19.10;;;4.00;99.90;;;;;;5034224;28;20534;-53
2023/04/09 05:20:21;;;;;;;25.27;18.23;;;4.00;99.90;;;;;;5034044;28;20513;-51
2023/04/09 05:22:48;;;;;;;23.57;18.83;;;4.00;99.90;;;;;;5034628;28;20504;-51
2023/04/09 05:25:16;;;;;;;24.60;18.97;;;3.90;99.90;;;;;;5033488;28;20460;-51
2023/04/09 05:27:43;;;;;;;25.17;19.40;;;4.00;99.90;;;;;;5034468;28;20502;-51
2023/04/09 05:30:10;;;;;;;26.20;18.93;;;3.90;99.90;;;;;;5034911;28;20935;-52
2023/04/09 05:32:37;;;;;;;29.10;18.67;;;4.00;99.90;;;;;;5034020;28;20469;-51
2023/04/09 05:35:05;;;;;;;22.37;16.40;;;3.90;99.90;;;;;;5032789;28;20454;-51
2023/04/09 05:37:32;;;;;;;28.23;19.40;;;4.00;99.90;;;;;;5034409;28;20448;-52
2023/04/09 05:39:59;;;;;;;25.03;19.67;;;4.00;99.90;;;;;;5034317;28;20479;-53
2023/04/09 05:42:27;;;;;;;31.93;19.77;;;4.00;99.90;;;;;;5034924;28;20824;-51
2023/04/09 05:44:54;;;;;;;28.83;19.27;;;4.10;99.90;;;;;;5034423;28;20476;-52
2023/04/09 05:47:21;;;;;;;21.93;17.50;;;4.00;99.90;;;;;;5034540;28;20462;-51
2023/04/09 05:49:48;;;;;;;24.83;19.00;;;4.20;99.90;;;;;;5033973;28;21016;-52
2023/04/09 05:52:15;;;;;;;27.67;19.17;;;4.30;99.90;;;;;;5033872;28;20473;-51
2023/04/09 05:54:42;;;;;;;23.63;18.07;;;4.30;99.90;;;;;;5033958;28;20795;-52
2023/04/09 05:57:09;;;;;;;22.77;17.10;;;4.10;99.90;;;;;;5033685;28;20481;-52
2023/04/09 05:59:38;;;;;;;20.67;16.20;;;4.10;99.90;;;;;;5033089;28;20960;-52
2023/04/09 06:02:04;;;;;;;20.90;16.77;;;4.10;99.90;;;;;;5034083;28;20556;-51
2023/04/09 06:04:31;;;;;;;19.23;15.80;;;4.10;99.90;;;;;;5033705;28;20495;-51
2023/04/09 06:06:59;;;;;;;20.57;16.83;;;4.00;99.90;;;;;;5034073;28;20481;-53
2023/04/09 06:09:26;;;;;;;23.00;16.90;;;4.20;99.90;;;;;;5033460;28;21019;-52
2023/04/09 06:11:53;;;;;;;20.77;16.70;;;4.20;99.90;;;;;;5034160;28;20479;-52
2023/04/09 06:14:20;;;;;;;23.50;18.00;;;4.10;99.90;;;;;;5034540;28;20468;-51
2023/04/09 06:16:48;;;;;;;23.50;18.57;;;4.10;99.90;;;;;;5033762;28;20529;-52
2023/04/09 06:19:16;;;;;;;22.37;17.50;;;4.20;99.90;;;;;;5033960;28;20438;-52
2023/04/09 06:21:43;;;;;;;24.07;17.27;;;4.30;99.90;;;;;;5031809;28;20496;-52
2023/04/09 06:24:10;;;;;;;20.40;15.87;;;4.60;99.90;;;;;;5032318;28;20451;-52
2023/04/09 06:26:37;;;;;;;21.17;16.20;;;4.50;99.90;;;;;;5032009;28;20700;-52
2023/04/09 06:29:04;;;;;;;18.27;15.30;;;4.30;99.90;;;;;;5032588;28;20507;-51
2023/04/09 06:31:31;;;;;;;19.77;15.50;;;4.30;99.90;;;;;;5032289;28;20444;-51
2023/04/09 06:33:59;;;;;;;21.90;17.40;;;4.20;99.90;;;;;;5033328;28;20875;-53
2023/04/09 06:36:27;;;;;;;21.53;15.30;;;4.40;99.90;;;;;;5031637;28;20961;-51
2023/04/09 06:38:54;;;;;;;20.17;15.33;;;4.60;99.90;;;;;;5033245;28;20441;-51
2023/04/09 06:41:21;;;;;;;19.50;16.27;;;4.80;99.90;;;;;;5033212;28;20506;-51
2023/04/09 06:43:48;;;;;;;20.10;15.90;;;4.80;99.90;;;;;;5033517;28;20473;-54
2023/04/09 06:46:18;;;;;;;24.63;17.93;;;4.80;99.90;;;;;;5032695;28;20870;-51
2023/04/09 06:48:46;;;;;;;20.30;16.30;;;4.80;99.90;;;;;;5036347;28;20483;-51
2023/04/09 06:51:14;;;;;;;20.23;16.13;;;4.70;99.90;;;;;;5039230;28;20948;-50
2023/04/09 06:53:41;;;;;;;20.83;15.60;;;4.70;99.90;;;;;;5042508;28;20499;-52
2023/04/09 06:56:09;;;;;;;17.73;14.67;;;4.90;99.90;;;;;;5043225;28;20477;-51
2023/04/09 06:58:36;;;;;;;19.13;14.67;;;5.00;99.90;;;;;;5044103;28;20458;-52
2023/04/09 07:01:03;;;;;;;18.20;15.70;;;5.00;99.90;;;;;;5045319;28;20608;-54
2023/04/09 07:03:30;;;;;;;17.67;12.83;;;5.00;99.90;;;;;;5042875;28;20466;-52
2023/04/09 07:05:57;;;;;;;18.90;15.20;;;4.80;99.90;;;;;;5042871;28;20444;-52
2023/04/09 07:08:27;;;;;;;17.77;14.00;;;5.00;99.90;;;;;;5041052;28;20907;-52
2023/04/09 07:10:54;;;;;;;17.90;15.20;;;5.10;99.90;;;;;;5044346;28;20436;-52
2023/04/09 07:13:21;;;;;;;20.40;14.30;;;5.20;99.90;;;;;;5043496;28;20512;-52
2023/04/09 07:15:48;;;;;;;19.60;15.43;;;5.20;99.90;;;;;;5044073;28;20503;-52
2023/04/09 07:18:15;;;;;;;19.43;14.90;;;5.00;99.90;;;;;;5043067;28;20945;-52
2023/04/09 07:20:42;;;;;;;18.57;15.73;;;5.10;99.90;;;;;;5044852;28;20474;-53
2023/04/09 07:23:09;;;;;;;20.33;15.63;;;5.20;99.90;;;;;;5044174;28;20467;-51
2023/04/09 07:25:37;;;;;;;20.60;18.00;;;5.20;99.90;;;;;;5043355;28;20961;-51
2023/04/09 07:28:04;;;;;;;19.23;17.03;;;5.00;99.90;;;;;;5043361;28;20470;-53
2023/04/09 07:30:31;;;;;;;19.60;15.23;;;5.20;99.90;;;;;;5043523;28;20535;-52
2023/04/09 07:32:58;;;;;;;16.80;12.83;;;5.30;99.90;;;;;;5045448;28;20480;-54
2023/04/09 07:35:25;;;;;;;16.80;13.13;;;5.40;99.90;;;;;;5045124;28;20474;-52
2023/04/09 07:37:52;;;;;;;13.97;12.00;;;5.20;99.90;;;;;;5041154;28;21034;-51
2023/04/09 07:40:19;;;;;;;14.77;11.73;;;5.10;99.90;;;;;;5046115;28;20468;-52
2023/04/09 07:42:48;;;;;;;17.10;13.37;;;5.00;99.90;;;;;;5045554;28;21072;-52
2023/04/09 07:45:15;;;;;;;18.47;13.70;;;5.20;99.90;;;;;;5044193;28;20512;-53
2023/04/09 07:47:43;;;;;;;19.03;15.67;;;5.00;99.90;;;;;;5044950;28;20487;-52
2023/04/09 07:50:10;;;;;;;20.37;14.33;;;4.80;99.90;;;;;;5045059;28;20554;-52
2023/04/09 07:52:37;;;;;;;20.10;14.77;;;4.70;99.90;;;;;;5042763;28;20457;-51
2023/04/09 07:55:05;;;;;;;18.97;14.13;;;4.80;99.90;;;;;;5044989;28;20440;-52
2023/04/09 07:57:32;;;;;;;18.80;13.87;;;4.80;99.90;;;;;;5043996;28;20455;-53
2023/04/09 08:00:00;;;;;;;15.53;13.60;;;4.80;99.90;;;;;;5045133;28;20430;-52
2023/04/09 08:02:27;;;;;;;16.77;13.43;;;4.90;99.90;;;;;;5045710;28;20487;-51
2023/04/09 08:04:54;;;;;;;20.40;14.80;;;4.90;99.90;;;;;;5043844;28;20473;-54
2023/04/09 08:07:21;;;;;;;15.27;12.70;;;5.00;99.90;;;;;;5042887;28;20870;-51
2023/04/09 08:09:48;;;;;;;16.10;12.47;;;5.10;99.90;;;;;;5043992;28;20515;-51
2023/04/09 08:12:15;;;;;;;17.60;12.60;;;5.20;99.90;;;;;;5045768;28;20526;-50
2023/04/09 08:14:42;;;;;;;16.30;12.73;;;5.20;99.90;;;;;;5041463;28;20441;-49
2023/04/09 08:17:11;;;;;;;18.10;12.63;;;5.30;99.90;;;;;;5041681;28;20964;-51
2023/04/09 08:19:38;;;;;;;12.63;10.93;;;5.20;99.90;;;;;;5036835;28;21026;-51
2023/04/09 08:22:04;;;;;;;14.50;12.50;;;5.20;99.90;;;;;;5040658;28;20540;-51
2023/04/09 08:24:33;;;;;;;16.57;13.07;;;5.30;99.90;;;;;;5040010;28;20455;-50
2023/04/09 08:27:00;;;;;;;17.17;13.13;;;5.40;99.90;;;;;;5043958;28;20490;-51
2023/04/09 08:29:28;;;;;;;16.43;12.90;;;5.40;99.90;;;;;;5041824;28;20470;-52
2023/04/09 08:31:55;;;;;;;13.97;11.17;;;5.30;99.90;;;;;;5036332;28;20843;-50
2023/04/09 08:34:23;;;;;;;15.97;13.30;;;5.30;99.90;;;;;;5042181;28;20896;-52
2023/04/09 08:36:50;;;;;;;15.57;12.87;;;5.50;99.90;;;;;;5036296;28;20953;-50
2023/04/09 08:39:19;;;;;;;14.70;12.87;;;5.40;99.90;;;;;;5034604;28;20462;-51
2023/04/09 08:41:47;;;;;;;15.67;12.20;;;5.50;99.90;;;;;;5032662;28;21063;-51
2023/04/09 08:44:14;;;;;;;14.97;12.20;;;5.50;99.90;;;;;;5033976;28;20913;-52
2023/04/09 08:46:42;;;;;;;14.10;12.50;;;5.60;99.90;;;;;;5028208;28;20454;-50
2023/04/09 08:49:09;;;;;;;15.93;12.00;;;5.80;99.90;;;;;;5031812;28;20555;-52
2023/04/09 08:51:39;;;;;;;17.00;12.40;;;6.00;99.90;;;;;;5031121;28;20456;-52
2023/04/09 08:54:06;;;;;;;15.37;12.47;;;6.10;99.90;;;;;;5032253;28;20481;-51
2023/04/09 08:56:33;;;;;;;13.97;11.57;;;6.20;99.90;;;;;;5031952;28;20470;-51
2023/04/09 08:59:00;;;;;;;16.53;12.13;;;6.30;99.90;;;;;;5033017;28;20478;-54
2023/04/09 09:01:30;;;;;;;11.70;10.60;;;6.40;99.90;;;;;;5031353;28;20453;-51
2023/04/09 09:04:00;;;;;;;15.10;12.27;;;6.50;99.90;;;;;;5032542;28;20435;-52
2023/04/09 09:06:31;;;;;;;11.20;9.40;;;6.50;99.90;;;;;;5030225;28;20443;-53
2023/04/09 09:09:06;;;;;;;14.43;11.50;;;6.50;99.90;;;;;;5031849;28;20957;-51
2023/04/09 09:11:33;;;;;;;13.23;10.43;;;6.60;99.90;;;;;;5030611;28;20803;-51
2023/04/09 09:14:02;;;;;;;10.33;9.17;;;6.60;99.90;;;;;;5032109;28;20498;-50
2023/04/09 09:16:30;;;;;;;12.00;9.27;;;6.50;99.90;;;;;;5031515;28;20457;-54
2023/04/09 09:18:57;;;;;;;10.00;8.97;;;6.50;99.90;;;;;;5031315;28;20443;-50
2023/04/09 09:21:26;;;;;;;11.47;9.60;;;6.60;99.90;;;;;;5031856;28;20535;-53
2023/04/09 09:23:53;;;;;;;9.50;8.10;;;6.50;99.90;;;;;;5031505;28;20482;-51
2023/04/09 09:26:23;;;;;;;8.80;7.90;;;6.60;99.90;;;;;;5032035;28;20497;-51
2023/04/09 09:28:50;;;;;;;11.20;9.70;;;6.60;99.90;;;;;;5030768;28;20542;-52
2023/04/09 09:31:19;;;;;;;10.37;8.97;;;6.70;99.90;;;;;;5031294;28;20453;-56
2023/04/09 09:33:47;;;;;;;9.07;7.93;;;6.80;99.90;;;;;;5031452;28;20490;-52
2023/04/09 09:36:15;;;;;;;9.03;7.60;;;6.90;99.90;;;;;;5030521;28;20454;-53
2023/04/09 09:38:53;;;;;;;11.03;8.30;;;6.90;99.90;;;;;;5030862;28;20442;-51
2023/04/09 09:41:22;;;;;;;10.83;8.30;;;6.90;99.90;;;;;;5030734;28;20530;-52
2023/04/09 09:43:49;;;;;;;10.40;8.50;;;6.90;99.90;;;;;;5031653;28;22002;-52
2023/04/09 09:46:17;;;;;;;8.43;7.10;;;6.80;99.90;;;;;;5031029;28;20446;-54
2023/04/09 09:48:45;;;;;;;8.40;7.50;;;6.70;99.90;;;;;;5030995;28;20455;-52
2023/04/09 09:51:13;;;;;;;9.10;7.53;;;6.90;99.90;;;;;;5030220;28;20876;-52
2023/04/09 09:53:43;;;;;;;10.93;9.27;;;6.80;99.90;;;;;;5030969;28;20549;-52
2023/04/09 09:56:15;;;;;;;15.13;10.60;;;7.00;99.90;;;;;;5028947;28;20467;-51
2023/04/09 09:58:48;;;;;;;13.80;9.17;;;7.10;99.90;;;;;;5014841;28;20535;-51
2023/04/09 10:01:19;;;;;;;8.30;7.50;;;7.20;99.90;;;;;;5028331;28;20497;-51
2023/04/09 10:03:46;;;;;;;8.70;7.83;;;7.20;99.90;;;;;;5028382;28;20493;-52
2023/04/09 10:06:15;;;;;;;10.47;8.40;;;7.20;99.90;;;;;;5028098;28;20529;-54
2023/04/09 10:08:43;;;;;;;8.67;7.23;;;7.10;99.90;;;;;;5030332;28;20526;-52
2023/04/09 10:11:11;;;;;;;7.87;6.20;;;7.20;99.90;;;;;;5030805;28;20548;-52
2023/04/09 10:13:41;;;;;;;9.47;6.70;;;7.30;99.90;;;;;;5026550;28;20476;-52
2023/04/09 10:16:10;;;;;;;8.50;5.80;;;7.30;99.90;;;;;;5029427;28;20882;-51
2023/04/09 10:18:37;;;;;;;8.87;6.50;;;7.30;99.90;;;;;;5030048;28;20474;-50
2023/04/09 10:21:10;;;;;;;5.93;5.13;;;7.30;99.90;;;;;;5030595;28;20447;-51
2023/04/09 10:23:40;;;;;;;5.53;4.87;;;7.30;99.90;;;;;;5033693;28;20980;-51
2023/04/09 10:26:08;;;;;;;5.83;5.27;;;7.20;99.90;;;;;;5034012;28;20490;-51
2023/04/09 10:28:36;;;;;;;5.70;5.07;;;7.40;99.90;;;;;;5032879;28;20983;-52
2023/04/09 10:31:05;;;;;;;6.90;5.97;;;7.40;99.90;;;;;;5033043;28;20924;-51
2023/04/09 10:33:36;;;;;;;5.63;5.03;;;7.40;99.90;;;;;;5034016;28;20478;-50
2023/04/09 10:36:05;;;;;;;5.00;4.60;;;7.50;99.90;;;;;;5033997;28;20446;-50
2023/04/09 10:38:40;;;;;;;6.13;5.50;;;7.50;99.90;;;;;;5033710;28;20474;-51
2023/04/09 10:41:15;;;;;;;6.90;5.60;;;7.50;99.90;;;;;;5033390;28;20525;-54
2023/04/09 10:43:42;;;;;;;6.33;4.93;;;7.50;99.90;;;;;;5032043;28;20469;-51
2023/04/09 10:46:27;;;;;;;6.07;5.47;;;7.50;99.90;;;;;;5032957;28;20526;-51
2023/04/09 10:49:15;;;;;;;5.90;5.33;;;7.50;99.90;;;;;;5033128;28;20469;-53
2023/04/09 10:51:47;;;;;;;6.60;5.23;;;7.50;99.90;;;;;;5033683;28;20438;-53
2023/04/09 10:54:44;;;;;;;5.73;5.13;;;7.50;99.90;;;;;;5034005;28;20443;-51
2023/04/09 10:57:13;;;;;;;5.27;4.73;;;7.60;99.90;;;;;;5015191;28;20465;-52
2023/04/09 10:59:42;;;;;;;6.37;5.10;;;7.80;99.90;;;;;;5021437;28;20785;-52
2023/04/09 11:02:15;;;;;;;6.13;5.30;;;7.80;99.90;;;;;;5032198;28;20454;-50
2023/04/09 11:04:57;;;;;;;5.90;4.70;;;7.80;99.90;;;;;;5033055;28;20661;-56
2023/04/09 11:07:25;;;;;;;6.83;5.80;;;7.90;99.90;;;;;;5031486;28;20525;-50
2023/04/09 11:09:53;;;;;;;6.23;5.63;;;7.90;99.90;;;;;;5032090;28;20502;-51
2023/04/09 11:12:19;;;;;;;6.13;5.53;;;8.00;99.90;;;;;;5029185;28;20538;-53
2023/04/09 11:14:46;;;;;;;5.87;5.20;;;8.10;99.90;;;;;;5031621;28;20523;-54
2023/04/09 11:17:13;;;;;;;6.20;5.20;;;8.20;99.90;;;;;;5029028;28;20794;-52
2023/04/09 11:19:40;;;;;;;6.67;5.47;;;8.30;99.90;;;;;;5030754;28;20953;-53
2023/04/09 11:22:10;;;;;;;7.43;5.83;;;8.60;99.90;;;;;;5032004;28;20470;-52
2023/04/09 11:24:43;;;;;;;5.77;5.17;;;8.90;99.90;;;;;;5029790;28;20738;-52
2023/04/09 11:27:10;;;;;;;6.90;5.70;;;8.90;99.90;;;;;;5028507;28;20629;-51
2023/04/09 11:29:37;;;;;;;6.90;5.50;;;9.00;99.90;;;;;;5031143;28;20474;-52
2023/04/09 11:32:05;;;;;;;5.90;5.30;;;9.00;99.90;;;;;;5030719;28;20554;-52
2023/04/09 11:34:32;;;;;;;5.90;5.30;;;9.20;99.90;;;;;;5023412;28;20446;-50
2023/04/09 11:37:03;;;;;;;8.10;5.87;;;9.40;99.90;;;;;;5029961;28;20485;-50
2023/04/09 11:39:32;;;;;;;4.33;3.90;;;9.50;99.90;;;;;;5028392;28;20466;-55
2023/04/09 11:41:59;;;;;;;6.03;4.70;;;9.50;99.90;;;;;;5039743;28;20461;-50
2023/04/09 11:44:26;;;;;;;6.30;5.23;;;9.50;99.90;;;;;;5042284;28;20499;-51
2023/04/09 11:46:53;;;;;;;6.70;5.40;;;9.40;99.90;;;;;;5041505;28;20557;-53
2023/04/09 11:49:20;;;;;;;5.70;4.70;;;9.00;99.90;;;;;;5041634;28;20522;-53
2023/04/09 11:51:47;;;;;;;5.30;4.20;;;9.10;99.90;;;;;;5038324;28;20570;-52
2023/04/09 11:54:14;;;;;;;5.50;4.63;;;9.10;99.90;;;;;;5033407;28;20478;-53
2023/04/09 11:56:43;;;;;;;5.77;5.07;;;9.00;99.90;;;;;;5029968;28;20442;-52
2023/04/09 11:59:14;;;;;;;6.90;5.50;;;8.90;99.90;;;;;;5029750;28;20874;-52
2023/04/09 12:01:41;;;;;;;5.03;4.20;;;8.90;99.90;;;;;;5029487;28;21000;-55
2023/04/09 12:04:08;;;;;;;4.73;4.33;;;9.00;99.90;;;;;;5039916;28;20473;-52
2023/04/09 12:06:40;;;;;;;3.60;3.13;;;9.00;99.90;;;;;;5041775;28;20456;-55
2023/04/09 12:09:12;;;;;;;4.30;3.60;;;9.00;99.90;;;;;;5039874;28;20484;-53
2023/04/09 12:11:40;;;;;;;3.83;3.50;;;9.10;99.90;;;;;;5038616;28;20577;-56
2023/04/09 12:14:13;;;;;;;4.00;3.60;;;9.00;99.90;;;;;;5038522;28;20463;-53
2023/04/09 12:16:42;;;;;;;4.03;3.60;;;9.00;99.90;;;;;;5037531;28;20447;-53
2023/04/09 12:19:10;;;;;;;5.50;4.13;;;9.00;99.90;;;;;;5039275;28;20438;-52
2023/04/09 12:21:47;;;;;;;6.17;4.53;;;9.00;99.90;;;;;;5039545;28;20540;-53
2023/04/09 12:24:15;;;;;;;4.47;3.50;;;9.00;99.90;;;;;;5037933;28;20452;-51
2023/04/09 12:26:42;;;;;;;5.70;4.00;;;9.10;99.90;;;;;;5037676;28;20439;-52
2023/04/09 12:29:11;;;;;;;3.80;3.27;;;9.20;99.90;;;;;;5031046;28;20551;-52
2023/04/09 12:31:38;;;;;;;4.40;3.97;;;9.10;99.90;;;;;;5032585;28;20486;-53
2023/04/09 12:34:05;;;;;;;4.67;3.63;;;9.20;99.90;;;;;;5009259;28;20538;-52
2023/04/09 12:36:31;;;;;;;3.87;3.23;;;9.10;99.90;;;;;;5008443;28;20975;-52
2023/04/09 12:38:58;;;;;;;4.17;3.47;;;9.10;99.90;;;;;;5009070;28;20558;-52
2023/04/09 12:41:25;;;;;;;9.07;5.87;;;9.20;99.90;;;;;;5026856;28;20478;-52
2023/04/09 12:43:52;;;;;;;3.63;3.30;;;9.10;99.90;;;;;;5028640;28;20920;-52
2023/04/09 12:46:20;;;;;;;18.00;10.90;;;9.20;99.90;;;;;;5028335;28;20450;-52
2023/04/09 12:48:47;;;;;;;10.77;7.40;;;9.10;99.90;;;;;;5029104;28;20477;-52